sensor_id;sensor_type;location;lat;lon;timestamp;P1;durP1;ratioP1;P2;durP2;ratioP2
43650;SDS011;29247;50.944;5.382;2023-04-15T00:01:23;8.38;;;4.28;;
43650;SDS011;29247;50.944;5.382;2023-04-15T00:03:52;6.57;;;3.78;;
43650;SDS011;29247;50.944;5.382;2023-04-15T00:06:21;7.85;;;4.50;;
43650;SDS011;29247;50.944;5.382;2023-04-15T00:08:48;8.35;;;4.47;;
43650;SDS011;29247;50.944;5.382;2023-04-15T00:11:14;9.25;;;4.20;;
43650;SDS011;29247;50.944;5.382;2023-04-15T00:13:43;10.13;;;3.50;;
43650;SDS011;29247;50.944;5.382;2023-04-15T00:16:09;7.38;;;3.83;;
43650;SDS011;29247;50.944;5.382;2023-04-15T00:18:35;7.38;;;3.58;;
43650;SDS011;29247;50.944;5.382;2023-04-15T00:21:02;9.07;;;3.65;;
43650;SDS011;29247;50.944;5.382;2023-04-15T00:23:30;7.25;;;3.60;;
43650;SDS011;29247;50.944;5.382;2023-04-15T00:25:56;5.65;;;3.08;;
43650;SDS011;29247;50.944;5.382;2023-04-15T00:28:22;5.00;;;3.33;;
43650;SDS011;29247;50.944;5.382;2023-04-15T00:30:48;6.18;;;3.45;;
43650;SDS011;29247;50.944;5.382;2023-04-15T00:33:14;6.07;;;2.72;;
43650;SDS011;29247;50.944;5.382;2023-04-15T00:35:40;7.97;;;2.70;;
43650;SDS011;29247;50.944;5.382;2023-04-15T00:38:08;5.70;;;3.40;;
43650;SDS011;29247;50.944;5.382;2023-04-15T00:40:34;4.28;;;2.00;;
43650;SDS011;29247;50.944;5.382;2023-04-15T00:43:00;3.95;;;1.88;;
43650;SDS011;29247;50.944;5.382;2023-04-15T00:45:29;3.22;;;2.28;;
43650;SDS011;29247;50.944;5.382;2023-04-15T00:47:54;3.42;;;2.15;;
43650;SDS011;29247;50.944;5.382;2023-04-15T00:50:21;7.13;;;2.75;;
43650;SDS011;29247;50.944;5.382;2023-04-15T00:52:47;4.65;;;2.53;;
43650;SDS011;29247;50.944;5.382;2023-04-15T00:55:15;3.63;;;2.50;;
43650;SDS011;29247;50.944;5.382;2023-04-15T00:57:45;5.25;;;2.70;;
43650;SDS011;29247;50.944;5.382;2023-04-15T01:00:11;5.47;;;2.65;;
43650;SDS011;29247;50.944;5.382;2023-04-15T01:02:37;5.63;;;2.63;;
43650;SDS011;29247;50.944;5.382;2023-04-15T01:05:03;5.30;;;2.20;;
43650;SDS011;29247;50.944;5.382;2023-04-15T01:07:34;5.15;;;2.35;;
43650;SDS011;29247;50.944;5.382;2023-04-15T01:10:01;4.32;;;2.03;;
43650;SDS011;29247;50.944;5.382;2023-04-15T01:12:30;5.55;;;2.30;;
43650;SDS011;29247;50.944;5.382;2023-04-15T01:14:57;5.65;;;2.10;;
43650;SDS011;29247;50.944;5.382;2023-04-15T01:17:24;11.43;;;2.95;;
43650;SDS011;29247;50.944;5.382;2023-04-15T01:19:50;7.40;;;2.63;;
43650;SDS011;29247;50.944;5.382;2023-04-15T01:22:18;4.78;;;2.35;;
43650;SDS011;29247;50.944;5.382;2023-04-15T01:24:47;5.70;;;2.22;;
43650;SDS011;29247;50.944;5.382;2023-04-15T01:27:26;2.78;;;1.55;;
43650;SDS011;29247;50.944;5.382;2023-04-15T01:29:52;4.60;;;1.90;;
43650;SDS011;29247;50.944;5.382;2023-04-15T01:32:17;7.88;;;2.50;;
43650;SDS011;29247;50.944;5.382;2023-04-15T01:34:44;7.82;;;1.80;;
43650;SDS011;29247;50.944;5.382;2023-04-15T01:37:09;5.72;;;2.10;;
43650;SDS011;29247;50.944;5.382;2023-04-15T01:39:35;4.63;;;1.90;;
43650;SDS011;29247;50.944;5.382;2023-04-15T01:42:01;4.40;;;1.90;;
43650;SDS011;29247;50.944;5.382;2023-04-15T01:44:30;2.60;;;2.08;;
43650;SDS011;29247;50.944;5.382;2023-04-15T01:46:56;5.05;;;2.35;;
43650;SDS011;29247;50.944;5.382;2023-04-15T01:49:24;7.40;;;1.90;;
43650;SDS011;29247;50.944;5.382;2023-04-15T01:51:50;7.65;;;1.83;;
43650;SDS011;29247;50.944;5.382;2023-04-15T01:54:16;3.65;;;1.75;;
43650;SDS011;29247;50.944;5.382;2023-04-15T01:56:44;6.47;;;1.98;;
43650;SDS011;29247;50.944;5.382;2023-04-15T01:59:12;2.38;;;1.52;;
43650;SDS011;29247;50.944;5.382;2023-04-15T02:01:40;3.33;;;1.80;;
43650;SDS011;29247;50.944;5.382;2023-04-15T02:04:09;4.72;;;1.70;;
43650;SDS011;29247;50.944;5.382;2023-04-15T02:06:41;3.90;;;1.67;;
43650;SDS011;29247;50.944;5.382;2023-04-15T02:09:10;4.32;;;1.70;;
43650;SDS011;29247;50.944;5.382;2023-04-15T02:11:36;2.28;;;1.60;;
43650;SDS011;29247;50.944;5.382;2023-04-15T02:14:04;3.22;;;1.52;;
43650;SDS011;29247;50.944;5.382;2023-04-15T02:16:31;5.25;;;1.60;;
43650;SDS011;29247;50.944;5.382;2023-04-15T02:18:58;3.03;;;1.70;;
43650;SDS011;29247;50.944;5.382;2023-04-15T02:21:26;4.22;;;1.70;;
43650;SDS011;29247;50.944;5.382;2023-04-15T02:23:57;3.72;;;1.67;;
43650;SDS011;29247;50.944;5.382;2023-04-15T02:26:23;3.70;;;1.85;;
43650;SDS011;29247;50.944;5.382;2023-04-15T02:28:51;3.58;;;1.77;;
43650;SDS011;29247;50.944;5.382;2023-04-15T02:31:17;3.08;;;1.77;;
43650;SDS011;29247;50.944;5.382;2023-04-15T02:33:43;2.83;;;1.67;;
43650;SDS011;29247;50.944;5.382;2023-04-15T02:36:11;4.95;;;1.90;;
43650;SDS011;29247;50.944;5.382;2023-04-15T02:38:38;6.13;;;1.75;;
43650;SDS011;29247;50.944;5.382;2023-04-15T02:41:08;4.57;;;2.00;;
43650;SDS011;29247;50.944;5.382;2023-04-15T02:43:36;6.15;;;2.20;;
43650;SDS011;29247;50.944;5.382;2023-04-15T02:46:06;4.28;;;2.13;;
43650;SDS011;29247;50.944;5.382;2023-04-15T02:48:31;5.03;;;2.03;;
43650;SDS011;29247;50.944;5.382;2023-04-15T02:51:30;2.95;;;1.70;;
43650;SDS011;29247;50.944;5.382;2023-04-15T02:53:49;5.78;;;2.20;;
43650;SDS011;29247;50.944;5.382;2023-04-15T02:56:15;3.92;;;1.60;;
43650;SDS011;29247;50.944;5.382;2023-04-15T02:58:43;4.50;;;1.67;;
43650;SDS011;29247;50.944;5.382;2023-04-15T03:01:09;3.28;;;1.80;;
43650;SDS011;29247;50.944;5.382;2023-04-15T03:03:35;4.10;;;1.85;;
43650;SDS011;29247;50.944;5.382;2023-04-15T03:06:04;7.68;;;2.13;;
43650;SDS011;29247;50.944;5.382;2023-04-15T03:08:30;3.30;;;1.67;;
43650;SDS011;29247;50.944;5.382;2023-04-15T03:10:57;3.78;;;1.88;;
43650;SDS011;29247;50.944;5.382;2023-04-15T03:13:24;3.55;;;1.77;;
43650;SDS011;29247;50.944;5.382;2023-04-15T03:15:50;5.82;;;2.13;;
43650;SDS011;29247;50.944;5.382;2023-04-15T03:18:19;5.00;;;1.80;;
43650;SDS011;29247;50.944;5.382;2023-04-15T03:20:44;5.43;;;2.22;;
43650;SDS011;29247;50.944;5.382;2023-04-15T03:23:10;5.00;;;2.15;;
43650;SDS011;29247;50.944;5.382;2023-04-15T03:25:36;4.50;;;2.42;;
43650;SDS011;29247;50.944;5.382;2023-04-15T03:28:04;3.33;;;2.40;;
43650;SDS011;29247;50.944;5.382;2023-04-15T03:30:30;5.10;;;2.35;;
43650;SDS011;29247;50.944;5.382;2023-04-15T03:32:55;7.88;;;2.70;;
43650;SDS011;29247;50.944;5.382;2023-04-15T03:38:31;4.07;;;2.60;;
43650;SDS011;29247;50.944;5.382;2023-04-15T03:40:56;6.53;;;2.10;;
43650;SDS011;29247;50.944;5.382;2023-04-15T03:43:22;6.13;;;2.67;;
43650;SDS011;29247;50.944;5.382;2023-04-15T03:45:47;4.55;;;2.38;;
43650;SDS011;29247;50.944;5.382;2023-04-15T03:48:13;2.55;;;2.28;;
43650;SDS011;29247;50.944;5.382;2023-04-15T03:50:39;8.40;;;3.13;;
43650;SDS011;29247;50.944;5.382;2023-04-15T03:53:07;8.13;;;2.83;;
43650;SDS011;29247;50.944;5.382;2023-04-15T03:55:33;4.95;;;2.70;;
43650;SDS011;29247;50.944;5.382;2023-04-15T03:57:58;6.60;;;2.03;;
43650;SDS011;29247;50.944;5.382;2023-04-15T04:00:26;8.30;;;2.70;;
43650;SDS011;29247;50.944;5.382;2023-04-15T04:02:52;6.82;;;2.88;;
43650;SDS011;29247;50.944;5.382;2023-04-15T04:05:20;5.45;;;2.53;;
43650;SDS011;29247;50.944;5.382;2023-04-15T04:07:46;5.40;;;2.58;;
43650;SDS011;29247;50.944;5.382;2023-04-15T04:10:14;4.75;;;2.42;;
43650;SDS011;29247;50.944;5.382;2023-04-15T04:12:42;7.20;;;2.67;;
43650;SDS011;29247;50.944;5.382;2023-04-15T04:15:08;6.10;;;2.25;;
43650;SDS011;29247;50.944;5.382;2023-04-15T04:17:39;3.05;;;2.15;;
43650;SDS011;29247;50.944;5.382;2023-04-15T04:20:05;4.40;;;2.67;;
43650;SDS011;29247;50.944;5.382;2023-04-15T04:22:37;7.57;;;2.88;;
43650;SDS011;29247;50.944;5.382;2023-04-15T04:25:06;4.70;;;2.65;;
43650;SDS011;29247;50.944;5.382;2023-04-15T04:27:34;5.35;;;2.30;;
43650;SDS011;29247;50.944;5.382;2023-04-15T04:30:03;4.38;;;2.72;;
43650;SDS011;29247;50.944;5.382;2023-04-15T04:32:29;4.88;;;2.67;;
43650;SDS011;29247;50.944;5.382;2023-04-15T04:34:55;5.38;;;2.45;;
43650;SDS011;29247;50.944;5.382;2023-04-15T04:37:21;4.53;;;2.70;;
43650;SDS011;29247;50.944;5.382;2023-04-15T04:39:47;4.32;;;2.75;;
43650;SDS011;29247;50.944;5.382;2023-04-15T04:42:13;3.47;;;2.13;;
43650;SDS011;29247;50.944;5.382;2023-04-15T04:44:41;9.43;;;2.70;;
43650;SDS011;29247;50.944;5.382;2023-04-15T04:47:06;5.30;;;2.35;;
43650;SDS011;29247;50.944;5.382;2023-04-15T04:49:32;4.40;;;2.45;;
43650;SDS011;29247;50.944;5.382;2023-04-15T04:51:58;2.92;;;1.90;;
43650;SDS011;29247;50.944;5.382;2023-04-15T04:54:29;4.38;;;2.22;;
43650;SDS011;29247;50.944;5.382;2023-04-15T04:56:59;4.10;;;2.00;;
43650;SDS011;29247;50.944;5.382;2023-04-15T04:59:25;3.75;;;2.25;;
43650;SDS011;29247;50.944;5.382;2023-04-15T05:01:53;7.97;;;2.25;;
43650;SDS011;29247;50.944;5.382;2023-04-15T05:04:19;6.97;;;2.55;;
43650;SDS011;29247;50.944;5.382;2023-04-15T05:06:45;4.50;;;2.00;;
43650;SDS011;29247;50.944;5.382;2023-04-15T05:09:13;5.72;;;2.10;;
43650;SDS011;29247;50.944;5.382;2023-04-15T05:11:38;7.20;;;2.17;;
43650;SDS011;29247;50.944;5.382;2023-04-15T05:14:06;7.45;;;2.20;;
43650;SDS011;29247;50.944;5.382;2023-04-15T05:16:32;7.38;;;2.20;;
43650;SDS011;29247;50.944;5.382;2023-04-15T05:18:57;4.78;;;1.98;;
43650;SDS011;29247;50.944;5.382;2023-04-15T05:21:23;6.63;;;2.63;;
43650;SDS011;29247;50.944;5.382;2023-04-15T05:23:51;4.82;;;2.78;;
43650;SDS011;29247;50.944;5.382;2023-04-15T05:26:19;6.45;;;2.38;;
43650;SDS011;29247;50.944;5.382;2023-04-15T05:28:46;6.28;;;2.17;;
43650;SDS011;29247;50.944;5.382;2023-04-15T05:31:11;4.55;;;2.40;;
43650;SDS011;29247;50.944;5.382;2023-04-15T05:33:37;7.63;;;2.40;;
43650;SDS011;29247;50.944;5.382;2023-04-15T05:36:04;4.47;;;1.80;;
43650;SDS011;29247;50.944;5.382;2023-04-15T05:38:30;10.07;;;2.30;;
43650;SDS011;29247;50.944;5.382;2023-04-15T05:40:55;7.55;;;2.42;;
43650;SDS011;29247;50.944;5.382;2023-04-15T05:43:23;7.32;;;4.22;;
43650;SDS011;29247;50.944;5.382;2023-04-15T05:45:49;7.55;;;2.08;;
43650;SDS011;29247;50.944;5.382;2023-04-15T05:48:15;11.38;;;3.47;;
43650;SDS011;29247;50.944;5.382;2023-04-15T05:50:41;7.10;;;3.38;;
43650;SDS011;29247;50.944;5.382;2023-04-15T05:53:07;4.05;;;2.50;;
43650;SDS011;29247;50.944;5.382;2023-04-15T05:55:33;8.45;;;2.90;;
43650;SDS011;29247;50.944;5.382;2023-04-15T05:58:01;7.22;;;3.40;;
43650;SDS011;29247;50.944;5.382;2023-04-15T06:00:27;8.38;;;3.38;;
43650;SDS011;29247;50.944;5.382;2023-04-15T06:02:56;5.60;;;2.92;;
43650;SDS011;29247;50.944;5.382;2023-04-15T06:05:24;8.23;;;3.05;;
43650;SDS011;29247;50.944;5.382;2023-04-15T06:07:50;4.75;;;2.63;;
43650;SDS011;29247;50.944;5.382;2023-04-15T06:10:16;8.35;;;3.08;;
43650;SDS011;29247;50.944;5.382;2023-04-15T06:12:41;12.32;;;3.72;;
43650;SDS011;29247;50.944;5.382;2023-04-15T06:15:07;5.05;;;3.15;;
43650;SDS011;29247;50.944;5.382;2023-04-15T06:17:34;8.57;;;3.42;;
43650;SDS011;29247;50.944;5.382;2023-04-15T06:20:03;6.70;;;3.17;;
43650;SDS011;29247;50.944;5.382;2023-04-15T06:22:29;5.40;;;3.38;;
43650;SDS011;29247;50.944;5.382;2023-04-15T06:24:58;9.25;;;3.25;;
43650;SDS011;29247;50.944;5.382;2023-04-15T06:27:27;9.35;;;4.13;;
43650;SDS011;29247;50.944;5.382;2023-04-15T06:29:53;7.53;;;3.65;;
43650;SDS011;29247;50.944;5.382;2023-04-15T06:32:21;8.00;;;4.15;;
43650;SDS011;29247;50.944;5.382;2023-04-15T06:34:49;13.85;;;4.43;;
43650;SDS011;29247;50.944;5.382;2023-04-15T06:37:19;5.15;;;3.47;;
43650;SDS011;29247;50.944;5.382;2023-04-15T06:39:45;9.13;;;4.78;;
43650;SDS011;29247;50.944;5.382;2023-04-15T06:42:13;5.53;;;3.58;;
43650;SDS011;29247;50.944;5.382;2023-04-15T06:44:41;10.57;;;4.43;;
43650;SDS011;29247;50.944;5.382;2023-04-15T06:47:06;8.18;;;3.90;;
43650;SDS011;29247;50.944;5.382;2023-04-15T06:49:33;6.32;;;4.30;;
43650;SDS011;29247;50.944;5.382;2023-04-15T06:52:02;5.88;;;3.67;;
43650;SDS011;29247;50.944;5.382;2023-04-15T06:54:32;7.60;;;4.28;;
43650;SDS011;29247;50.944;5.382;2023-04-15T06:56:57;7.57;;;4.93;;
43650;SDS011;29247;50.944;5.382;2023-04-15T06:59:23;7.85;;;4.45;;
43650;SDS011;29247;50.944;5.382;2023-04-15T07:01:49;8.10;;;5.00;;
43650;SDS011;29247;50.944;5.382;2023-04-15T07:04:18;8.45;;;4.75;;
43650;SDS011;29247;50.944;5.382;2023-04-15T07:06:46;11.55;;;5.03;;
43650;SDS011;29247;50.944;5.382;2023-04-15T07:09:13;9.93;;;5.32;;
43650;SDS011;29247;50.944;5.382;2023-04-15T07:11:43;13.48;;;5.32;;
43650;SDS011;29247;50.944;5.382;2023-04-15T07:16:38;7.20;;;4.88;;
43650;SDS011;29247;50.944;5.382;2023-04-15T07:19:03;15.38;;;6.13;;
43650;SDS011;29247;50.944;5.382;2023-04-15T07:21:32;9.18;;;5.15;;
43650;SDS011;29247;50.944;5.382;2023-04-15T07:23:58;8.73;;;4.70;;
43650;SDS011;29247;50.944;5.382;2023-04-15T07:26:27;12.25;;;4.68;;
43650;SDS011;29247;50.944;5.382;2023-04-15T07:28:53;8.20;;;3.97;;
43650;SDS011;29247;50.944;5.382;2023-04-15T07:31:19;8.18;;;4.13;;
43650;SDS011;29247;50.944;5.382;2023-04-15T07:33:45;6.97;;;3.88;;
43650;SDS011;29247;50.944;5.382;2023-04-15T07:36:10;6.10;;;4.13;;
43650;SDS011;29247;50.944;5.382;2023-04-15T07:38:39;6.13;;;3.83;;
43650;SDS011;29247;50.944;5.382;2023-04-15T07:41:07;6.63;;;3.83;;
43650;SDS011;29247;50.944;5.382;2023-04-15T07:43:34;4.97;;;3.58;;
43650;SDS011;29247;50.944;5.382;2023-04-15T07:45:59;6.57;;;4.38;;
43650;SDS011;29247;50.944;5.382;2023-04-15T07:48:25;8.23;;;3.65;;
43650;SDS011;29247;50.944;5.382;2023-04-15T07:50:51;8.10;;;4.32;;
43650;SDS011;29247;50.944;5.382;2023-04-15T07:53:19;6.57;;;3.53;;
43650;SDS011;29247;50.944;5.382;2023-04-15T07:55:45;7.35;;;3.47;;
43650;SDS011;29247;50.944;5.382;2023-04-15T07:58:13;6.57;;;4.10;;
43650;SDS011;29247;50.944;5.382;2023-04-15T08:00:41;6.60;;;4.20;;
43650;SDS011;29247;50.944;5.382;2023-04-15T08:03:07;5.57;;;4.15;;
43650;SDS011;29247;50.944;5.382;2023-04-15T08:05:33;6.65;;;3.88;;
43650;SDS011;29247;50.944;5.382;2023-04-15T08:08:01;11.88;;;4.53;;
43650;SDS011;29247;50.944;5.382;2023-04-15T08:10:28;7.90;;;3.90;;
43650;SDS011;29247;50.944;5.382;2023-04-15T08:12:54;7.70;;;4.40;;
43650;SDS011;29247;50.944;5.382;2023-04-15T08:15:20;5.85;;;4.97;;
43650;SDS011;29247;50.944;5.382;2023-04-15T08:17:46;8.45;;;5.18;;
43650;SDS011;29247;50.944;5.382;2023-04-15T08:20:12;9.45;;;5.72;;
43650;SDS011;29247;50.944;5.382;2023-04-15T08:22:40;6.18;;;4.75;;
43650;SDS011;29247;50.944;5.382;2023-04-15T08:25:08;7.15;;;5.05;;
43650;SDS011;29247;50.944;5.382;2023-04-15T08:27:39;10.80;;;5.85;;
43650;SDS011;29247;50.944;5.382;2023-04-15T08:30:05;10.80;;;5.60;;
43650;SDS011;29247;50.944;5.382;2023-04-15T08:32:31;9.38;;;5.82;;
43650;SDS011;29247;50.944;5.382;2023-04-15T08:34:58;6.57;;;4.78;;
43650;SDS011;29247;50.944;5.382;2023-04-15T08:37:24;7.93;;;5.47;;
43650;SDS011;29247;50.944;5.382;2023-04-15T08:39:50;5.68;;;4.43;;
43650;SDS011;29247;50.944;5.382;2023-04-15T08:42:16;8.30;;;4.35;;
43650;SDS011;29247;50.944;5.382;2023-04-15T08:44:48;8.15;;;5.03;;
43650;SDS011;29247;50.944;5.382;2023-04-15T08:47:15;9.13;;;5.43;;
43650;SDS011;29247;50.944;5.382;2023-04-15T08:49:47;6.18;;;4.80;;
43650;SDS011;29247;50.944;5.382;2023-04-15T08:52:17;6.80;;;4.35;;
43650;SDS011;29247;50.944;5.382;2023-04-15T08:54:47;9.73;;;5.18;;
43650;SDS011;29247;50.944;5.382;2023-04-15T08:57:16;6.70;;;4.30;;
43650;SDS011;29247;50.944;5.382;2023-04-15T08:59:44;9.75;;;4.70;;
43650;SDS011;29247;50.944;5.382;2023-04-15T09:02:10;6.55;;;4.47;;
43650;SDS011;29247;50.944;5.382;2023-04-15T09:04:36;8.73;;;4.70;;
43650;SDS011;29247;50.944;5.382;2023-04-15T09:07:02;7.57;;;4.22;;
43650;SDS011;29247;50.944;5.382;2023-04-15T09:09:28;8.70;;;4.55;;
43650;SDS011;29247;50.944;5.382;2023-04-15T09:11:54;8.10;;;4.47;;
43650;SDS011;29247;50.944;5.382;2023-04-15T09:14:20;5.40;;;3.78;;
43650;SDS011;29247;50.944;5.382;2023-04-15T09:17:00;8.93;;;4.57;;
43650;SDS011;29247;50.944;5.382;2023-04-15T09:19:28;5.07;;;4.43;;
43650;SDS011;29247;50.944;5.382;2023-04-15T09:21:55;5.43;;;4.20;;
43650;SDS011;29247;50.944;5.382;2023-04-15T09:24:23;8.70;;;4.03;;
43650;SDS011;29247;50.944;5.382;2023-04-15T09:26:53;7.78;;;4.03;;
43650;SDS011;29247;50.944;5.382;2023-04-15T09:29:25;4.53;;;3.78;;
43650;SDS011;29247;50.944;5.382;2023-04-15T09:31:52;6.50;;;4.97;;
43650;SDS011;29247;50.944;5.382;2023-04-15T09:34:20;6.85;;;3.90;;
43650;SDS011;29247;50.944;5.382;2023-04-15T09:36:59;8.27;;;3.95;;
43650;SDS011;29247;50.944;5.382;2023-04-15T09:39:28;6.38;;;3.78;;
43650;SDS011;29247;50.944;5.382;2023-04-15T09:42:20;7.07;;;4.38;;
43650;SDS011;29247;50.944;5.382;2023-04-15T09:44:48;5.85;;;3.50;;
43650;SDS011;29247;50.944;5.382;2023-04-15T09:47:31;6.60;;;3.58;;
43650;SDS011;29247;50.944;5.382;2023-04-15T09:49:58;4.13;;;2.95;;
43650;SDS011;29247;50.944;5.382;2023-04-15T09:52:25;5.55;;;2.92;;
43650;SDS011;29247;50.944;5.382;2023-04-15T09:54:55;5.65;;;3.22;;
43650;SDS011;29247;50.944;5.382;2023-04-15T09:57:25;6.63;;;3.17;;
43650;SDS011;29247;50.944;5.382;2023-04-15T09:59:59;7.53;;;2.90;;
43650;SDS011;29247;50.944;5.382;2023-04-15T10:02:27;4.47;;;3.10;;
43650;SDS011;29247;50.944;5.382;2023-04-15T10:04:57;6.22;;;3.40;;
43650;SDS011;29247;50.944;5.382;2023-04-15T10:07:24;6.50;;;2.65;;
43650;SDS011;29247;50.944;5.382;2023-04-15T10:09:51;6.68;;;3.38;;
43650;SDS011;29247;50.944;5.382;2023-04-15T10:12:20;5.05;;;2.70;;
43650;SDS011;29247;50.944;5.382;2023-04-15T10:14:47;6.78;;;2.28;;
43650;SDS011;29247;50.944;5.382;2023-04-15T10:17:23;4.93;;;2.10;;
43650;SDS011;29247;50.944;5.382;2023-04-15T10:19:57;4.07;;;2.08;;
43650;SDS011;29247;50.944;5.382;2023-04-15T10:22:28;6.47;;;2.80;;
43650;SDS011;29247;50.944;5.382;2023-04-15T10:24:57;4.40;;;2.20;;
43650;SDS011;29247;50.944;5.382;2023-04-15T10:27:26;2.40;;;1.80;;
43650;SDS011;29247;50.944;5.382;2023-04-15T10:29:53;4.85;;;1.63;;
43650;SDS011;29247;50.944;5.382;2023-04-15T10:32:23;4.22;;;1.60;;
43650;SDS011;29247;50.944;5.382;2023-04-15T10:34:49;2.42;;;1.58;;
43650;SDS011;29247;50.944;5.382;2023-04-15T10:37:32;3.47;;;1.75;;
43650;SDS011;29247;50.944;5.382;2023-04-15T10:40:12;2.00;;;1.50;;
43650;SDS011;29247;50.944;5.382;2023-04-15T10:42:57;2.53;;;1.90;;
43650;SDS011;29247;50.944;5.382;2023-04-15T10:45:31;4.45;;;2.03;;
43650;SDS011;29247;50.944;5.382;2023-04-15T10:48:00;2.17;;;1.63;;
43650;SDS011;29247;50.944;5.382;2023-04-15T10:50:27;3.63;;;2.00;;
43650;SDS011;29247;50.944;5.382;2023-04-15T10:52:56;4.38;;;2.28;;
43650;SDS011;29247;50.944;5.382;2023-04-15T10:55:23;3.58;;;2.13;;
43650;SDS011;29247;50.944;5.382;2023-04-15T10:57:54;3.17;;;2.00;;
43650;SDS011;29247;50.944;5.382;2023-04-15T11:00:24;2.80;;;1.90;;
43650;SDS011;29247;50.944;5.382;2023-04-15T11:02:54;5.53;;;2.33;;
43650;SDS011;29247;50.944;5.382;2023-04-15T11:05:22;5.05;;;2.60;;
43650;SDS011;29247;50.944;5.382;2023-04-15T11:08:08;4.00;;;2.72;;
43650;SDS011;29247;50.944;5.382;2023-04-15T11:13:14;3.50;;;2.38;;
43650;SDS011;29247;50.944;5.382;2023-04-15T11:15:46;2.92;;;2.17;;
43650;SDS011;29247;50.944;5.382;2023-04-15T11:18:25;3.50;;;2.53;;
43650;SDS011;29247;50.944;5.382;2023-04-15T11:20:55;3.78;;;2.63;;
43650;SDS011;29247;50.944;5.382;2023-04-15T11:23:30;3.28;;;2.53;;
43650;SDS011;29247;50.944;5.382;2023-04-15T11:26:01;3.47;;;2.40;;
43650;SDS011;29247;50.944;5.382;2023-04-15T11:28:29;7.38;;;2.38;;
43650;SDS011;29247;50.944;5.382;2023-04-15T11:30:56;3.53;;;1.83;;
43650;SDS011;29247;50.944;5.382;2023-04-15T11:33:29;2.67;;;2.10;;
43650;SDS011;29247;50.944;5.382;2023-04-15T11:35:57;2.63;;;1.58;;
43650;SDS011;29247;50.944;5.382;2023-04-15T11:38:26;2.03;;;1.63;;
43650;SDS011;29247;50.944;5.382;2023-04-15T11:40:51;2.05;;;1.60;;
43650;SDS011;29247;50.944;5.382;2023-04-15T11:43:21;1.75;;;1.20;;
43650;SDS011;29247;50.944;5.382;2023-04-15T11:48:16;2.13;;;1.40;;
43650;SDS011;29247;50.944;5.382;2023-04-15T11:50:51;1.43;;;1.20;;
43650;SDS011;29247;50.944;5.382;2023-04-15T11:53:18;2.30;;;1.40;;
43650;SDS011;29247;50.944;5.382;2023-04-15T11:55:50;5.38;;;1.10;;
43650;SDS011;29247;50.944;5.382;2023-04-15T12:00:49;1.40;;;1.00;;
43650;SDS011;29247;50.944;5.382;2023-04-15T12:03:27;1.95;;;1.38;;
43650;SDS011;29247;50.944;5.382;2023-04-15T12:14:04;2.75;;;1.10;;
43650;SDS011;29247;50.944;5.382;2023-04-15T12:18:58;1.80;;;1.50;;
43650;SDS011;29247;50.944;5.382;2023-04-15T12:21:25;1.85;;;1.40;;
43650;SDS011;29247;50.944;5.382;2023-04-15T12:26:28;3.33;;;1.33;;
43650;SDS011;29247;50.944;5.382;2023-04-15T12:29:09;2.45;;;1.50;;
43650;SDS011;29247;50.944;5.382;2023-04-15T12:31:35;2.67;;;1.30;;
43650;SDS011;29247;50.944;5.382;2023-04-15T12:34:02;2.42;;;2.00;;
43650;SDS011;29247;50.944;5.382;2023-04-15T12:36:33;3.00;;;1.70;;
43650;SDS011;29247;50.944;5.382;2023-04-15T12:39:02;2.90;;;2.08;;
43650;SDS011;29247;50.944;5.382;2023-04-15T12:41:31;2.20;;;1.38;;
43650;SDS011;29247;50.944;5.382;2023-04-15T12:43:57;2.03;;;1.30;;
43650;SDS011;29247;50.944;5.382;2023-04-15T12:46:26;2.35;;;1.00;;
43650;SDS011;29247;50.944;5.382;2023-04-15T12:48:56;1.45;;;1.00;;
43650;SDS011;29247;50.944;5.382;2023-04-15T12:51:22;2.92;;;1.00;;
43650;SDS011;29247;50.944;5.382;2023-04-15T12:53:48;1.98;;;0.88;;
43650;SDS011;29247;50.944;5.382;2023-04-15T12:56:14;1.73;;;1.10;;
43650;SDS011;29247;50.944;5.382;2023-04-15T12:58:40;1.45;;;0.90;;
43650;SDS011;29247;50.944;5.382;2023-04-15T13:01:07;2.22;;;1.20;;
43650;SDS011;29247;50.944;5.382;2023-04-15T13:03:33;0.98;;;0.88;;
43650;SDS011;29247;50.944;5.382;2023-04-15T13:05:59;2.50;;;0.88;;
43650;SDS011;29247;50.944;5.382;2023-04-15T13:08:26;1.27;;;1.00;;
43650;SDS011;29247;50.944;5.382;2023-04-15T13:10:52;2.65;;;1.00;;
43650;SDS011;29247;50.944;5.382;2023-04-15T13:13:20;2.55;;;1.35;;
43650;SDS011;29247;50.944;5.382;2023-04-15T13:15:51;3.47;;;1.20;;
43650;SDS011;29247;50.944;5.382;2023-04-15T13:18:17;1.52;;;1.25;;
43650;SDS011;29247;50.944;5.382;2023-04-15T13:20:43;1.40;;;1.30;;
43650;SDS011;29247;50.944;5.382;2023-04-15T13:23:11;1.85;;;1.35;;
43650;SDS011;29247;50.944;5.382;2023-04-15T13:25:39;1.92;;;1.17;;
43650;SDS011;29247;50.944;5.382;2023-04-15T13:28:05;1.23;;;1.05;;
43650;SDS011;29247;50.944;5.382;2023-04-15T13:30:33;1.95;;;1.55;;
43650;SDS011;29247;50.944;5.382;2023-04-15T13:33:04;1.25;;;1.10;;
43650;SDS011;29247;50.944;5.382;2023-04-15T13:35:31;1.52;;;1.35;;
43650;SDS011;29247;50.944;5.382;2023-04-15T13:37:57;1.40;;;1.20;;
43650;SDS011;29247;50.944;5.382;2023-04-15T13:40:25;1.65;;;1.15;;
43650;SDS011;29247;50.944;5.382;2023-04-15T13:42:54;1.50;;;1.10;;
43650;SDS011;29247;50.944;5.382;2023-04-15T13:45:23;1.20;;;1.08;;
43650;SDS011;29247;50.944;5.382;2023-04-15T13:47:49;1.95;;;1.23;;
43650;SDS011;29247;50.944;5.382;2023-04-15T13:50:17;1.75;;;1.30;;
43650;SDS011;29247;50.944;5.382;2023-04-15T13:52:45;2.15;;;1.15;;
43650;SDS011;29247;50.944;5.382;2023-04-15T13:55:11;3.58;;;1.15;;
43650;SDS011;29247;50.944;5.382;2023-04-15T13:57:41;1.58;;;1.00;;
43650;SDS011;29247;50.944;5.382;2023-04-15T14:00:07;1.95;;;1.23;;
43650;SDS011;29247;50.944;5.382;2023-04-15T14:02:36;1.88;;;1.50;;
43650;SDS011;29247;50.944;5.382;2023-04-15T14:05:05;1.65;;;1.25;;
43650;SDS011;29247;50.944;5.382;2023-04-15T14:07:33;2.17;;;1.45;;
43650;SDS011;29247;50.944;5.382;2023-04-15T14:09:59;3.22;;;1.15;;
43650;SDS011;29247;50.944;5.382;2023-04-15T14:12:27;1.25;;;1.15;;
43650;SDS011;29247;50.944;5.382;2023-04-15T14:14:53;4.72;;;1.30;;
43650;SDS011;29247;50.944;5.382;2023-04-15T14:17:19;3.75;;;1.38;;
43650;SDS011;29247;50.944;5.382;2023-04-15T14:19:46;1.98;;;1.20;;
43650;SDS011;29247;50.944;5.382;2023-04-15T14:22:15;1.63;;;1.23;;
43650;SDS011;29247;50.944;5.382;2023-04-15T14:24:42;2.17;;;1.48;;
43650;SDS011;29247;50.944;5.382;2023-04-15T14:27:13;1.92;;;1.52;;
43650;SDS011;29247;50.944;5.382;2023-04-15T14:29:44;1.70;;;1.40;;
43650;SDS011;29247;50.944;5.382;2023-04-15T14:32:14;2.30;;;0.77;;
43650;SDS011;29247;50.944;5.382;2023-04-15T14:34:45;0.95;;;0.85;;
43650;SDS011;29247;50.944;5.382;2023-04-15T14:37:12;2.28;;;1.20;;
43650;SDS011;29247;50.944;5.382;2023-04-15T14:39:38;1.45;;;0.88;;
43650;SDS011;29247;50.944;5.382;2023-04-15T14:42:08;1.25;;;0.90;;
43650;SDS011;29247;50.944;5.382;2023-04-15T14:44:37;1.90;;;1.25;;
43650;SDS011;29247;50.944;5.382;2023-04-15T14:47:03;2.42;;;1.20;;
43650;SDS011;29247;50.944;5.382;2023-04-15T14:49:40;1.40;;;1.25;;
43650;SDS011;29247;50.944;5.382;2023-04-15T14:52:06;1.10;;;0.80;;
43650;SDS011;29247;50.944;5.382;2023-04-15T14:54:31;1.00;;;0.80;;
43650;SDS011;29247;50.944;5.382;2023-04-15T14:56:57;1.52;;;1.00;;
43650;SDS011;29247;50.944;5.382;2023-04-15T14:59:25;2.45;;;1.00;;
43650;SDS011;29247;50.944;5.382;2023-04-15T15:01:51;2.55;;;0.80;;
43650;SDS011;29247;50.944;5.382;2023-04-15T15:04:18;1.90;;;1.15;;
43650;SDS011;29247;50.944;5.382;2023-04-15T15:06:43;3.15;;;1.00;;
43650;SDS011;29247;50.944;5.382;2023-04-15T15:09:10;1.52;;;1.00;;
43650;SDS011;29247;50.944;5.382;2023-04-15T15:11:38;3.38;;;1.25;;
43650;SDS011;29247;50.944;5.382;2023-04-15T15:14:06;1.88;;;1.00;;
43650;SDS011;29247;50.944;5.382;2023-04-15T15:16:32;3.08;;;1.02;;
43650;SDS011;29247;50.944;5.382;2023-04-15T15:18:57;2.08;;;0.93;;